Time;durP1;ratioP1;P1;durP2;ratioP2;P2;SDS_P1;SDS_P2;PMS_P1;PMS_P2;Temp;Humidity;BMP_temperature;BMP_pressure;BME280_temperature;BME280_humidity;BME280_pressure;Samples;Min_cycle;Max_cycle;Signal;HPM_P1;HPM_P2
2022/01/12 00:01:16;;;;;;;5.83;5.17;;;;;;;5.61;46.67;99712.47;8453069;28;20551;-67
2022/01/12 00:05:22;;;;;;;5.83;5.10;;;;;;;5.79;47.65;99709.97;8481457;28;20233;-67
2022/01/12 00:09:29;;;;;;;5.07;4.57;;;;;;;5.72;47.15;99715.09;8481287;28;20229;-67
2022/01/12 00:13:32;;;;;;;5.40;4.90;;;;;;;5.73;47.45;99714.22;8455839;28;20226;-67
2022/01/12 00:17:35;;;;;;;5.97;5.27;;;;;;;5.79;47.10;99722.81;8447649;28;20221;-67
2022/01/12 00:21:38;;;;;;;6.50;5.43;;;;;;;5.77;47.42;99732.25;8447545;28;20756;-66
2022/01/12 00:25:58;;;;;;;6.33;5.70;;;;;;;5.86;47.94;99724.56;8447673;28;20240;-67
2022/01/12 00:34:26;;;;;;;5.70;5.10;;;;;;;5.79;48.45;99724.56;8426594;28;20241;-66
2022/01/12 00:38:30;;;;;;;5.67;5.03;;;;;;;5.82;48.36;99733.09;8447297;28;20226;-66
2022/01/12 00:42:35;;;;;;;5.57;5.00;;;;;;;5.83;47.79;99739.97;8455135;28;20236;-66
2022/01/12 00:46:40;;;;;;;5.07;4.57;;;;;;;5.77;48.43;99750.25;8447038;28;20225;-66
2022/01/12 00:50:43;;;;;;;5.10;4.60;;;;;;;5.81;47.86;99746.84;8446818;28;20237;-65
2022/01/12 00:54:47;;;;;;;5.60;5.00;;;;;;;5.75;47.72;99738.22;8447016;28;20226;-66
2022/01/12 00:58:51;;;;;;;4.90;4.40;;;;;;;5.60;48.04;99728.78;8446832;28;20234;-64
2022/01/12 01:02:55;;;;;;;4.90;4.50;;;;;;;5.63;48.19;99729.59;8446659;28;20233;-64
2022/01/12 01:06:58;;;;;;;4.57;4.17;;;;;;;5.60;47.79;99729.63;8446527;28;20293;-64
2022/01/12 01:11:01;;;;;;;4.50;4.10;;;;;;;5.62;47.68;99733.06;8443406;28;20233;-64
2022/01/12 01:15:11;;;;;;;4.53;4.13;;;;;;;5.60;46.99;99732.19;8446888;28;20226;-64
2022/01/12 01:27:55;;;;;;;5.87;5.30;;;;;;;5.59;48.21;99725.31;8453206;28;20539;-64
2022/01/12 01:31:59;;;;;;;5.73;5.20;;;;;;;5.48;48.05;99732.13;8453048;28;20533;-64
2022/01/12 01:36:03;;;;;;;5.37;4.83;;;;;;;5.37;48.36;99734.66;8452633;28;20537;-66
2022/01/12 01:40:07;;;;;;;4.87;4.43;;;;;;;5.38;48.73;99730.38;8452839;28;20561;-64
2022/01/12 01:53:21;;;;;;;5.07;4.23;;;;;;;5.51;48.62;99751.84;8454487;28;20229;-64
2022/01/12 01:57:24;;;;;;;4.60;4.10;;;;;;;5.56;48.10;99752.72;8452039;28;20641;-64
2022/01/12 02:01:27;;;;;;;4.70;4.30;;;;;;;5.38;48.32;99751.78;8451632;28;20413;-64
2022/01/12 02:05:32;;;;;;;6.17;4.80;;;;;;;5.46;48.91;99762.97;8451502;28;20253;-64
2022/01/12 02:09:36;;;;;;;4.73;4.20;;;;;;;5.48;48.36;99763.84;8451014;28;20222;-64
2022/01/12 02:13:38;;;;;;;5.13;4.40;;;;;;;5.43;48.20;99751.81;8451431;28;20230;-65
2022/01/12 02:17:54;;;;;;;5.03;4.50;;;;;;;5.53;48.46;99745.84;8451211;28;20252;-64
2022/01/12 02:35:22;;;;;;;4.97;4.30;;;;;;;5.41;49.09;99750.94;8451143;28;20529;-65
2022/01/12 02:39:54;;;;;;;5.30;4.27;;;;;;;5.36;49.01;99755.19;8450770;28;20454;-64
2022/01/12 02:57:11;;;;;;;5.17;4.50;;;;;;;5.26;47.48;99739.72;8450511;28;20252;-64
2022/01/12 03:05:44;;;;;;;5.20;4.53;;;;;;;4.16;49.56;99761.97;8444750;28;20225;-64
2022/01/12 03:09:46;;;;;;;7.43;4.80;;;;;;;4.76;48.20;99753.09;8450086;28;20234;-64
2022/01/12 03:13:56;;;;;;;5.20;4.70;;;;;;;5.14;48.13;99757.66;8449476;28;20238;-64
2022/01/12 03:17:59;;;;;;;5.27;4.57;;;;;;;4.76;48.05;99755.69;8449886;28;20226;-64
2022/01/12 03:22:02;;;;;;;4.70;4.20;;;;;;;4.65;47.83;99752.16;8449554;28;20234;-64
2022/01/12 03:26:06;;;;;;;4.90;4.40;;;;;;;4.81;47.99;99738.59;8449401;28;20236;-64
2022/01/12 03:30:12;;;;;;;4.93;4.43;;;;;;;5.19;47.80;99755.09;8449167;28;20230;-64
2022/01/12 03:34:25;;;;;;;5.20;4.30;;;;;;;5.13;47.99;99749.94;8448621;28;20429;-64
2022/01/12 03:38:27;;;;;;;5.23;4.73;;;;;;;5.01;47.69;99751.56;8448782;28;20230;-64
2022/01/12 03:42:30;;;;;;;5.33;4.63;;;;;;;4.92;48.04;99755.78;8447775;28;20241;-64
2022/01/12 03:46:38;;;;;;;4.70;4.30;;;;;;;5.03;48.14;99762.72;8447939;28;20222;-64
2022/01/12 03:50:41;;;;;;;4.73;4.33;;;;;;;5.14;48.03;99762.78;8448169;28;20234;-65
2022/01/12 03:54:45;;;;;;;6.37;4.63;;;;;;;5.14;48.53;99767.03;8448317;28;20234;-64
2022/01/12 03:58:49;;;;;;;5.57;4.50;;;;;;;4.85;49.49;99788.25;8448134;28;20533;-64
2022/01/12 04:02:54;;;;;;;4.93;4.43;;;;;;;4.84;49.08;99772.00;8448001;28;20230;-65
2022/01/12 04:11:19;;;;;;;5.67;4.83;;;;;;;4.95;48.54;99774.66;8447916;28;20232;-64
2022/01/12 04:15:21;;;;;;;5.07;4.43;;;;;;;4.84;48.66;99768.56;8447763;28;20237;-64
2022/01/12 04:19:27;;;;;;;4.83;4.40;;;;;;;4.85;48.59;99768.56;8447774;28;20226;-64
2022/01/12 04:23:31;;;;;;;5.70;4.53;;;;;;;4.70;48.35;99761.63;8447955;28;20236;-64
2022/01/12 04:27:35;;;;;;;5.80;5.30;;;;;;;4.69;48.36;99770.16;8447173;28;20222;-65
2022/01/12 04:31:39;;;;;;;7.27;5.13;;;;;;;4.58;48.90;99776.91;8447238;28;20241;-64
2022/01/12 04:35:47;;;;;;;5.63;4.93;;;;;;;4.58;48.81;99776.06;8447324;28;20253;-64
2022/01/12 04:39:51;;;;;;;5.60;4.60;;;;;;;4.37;49.39;99774.16;8447678;28;20230;-64
2022/01/12 04:43:56;;;;;;;5.53;4.80;;;;;;;4.54;49.30;99769.19;8447443;28;20230;-64
2022/01/12 04:48:07;;;;;;;6.40;5.10;;;;;;;4.31;48.80;99777.50;8447313;28;20293;-64
2022/01/12 04:52:11;;;;;;;5.67;5.17;;;;;;;4.21;49.65;99779.13;8447382;28;20226;-64
2022/01/12 04:56:14;;;;;;;5.63;5.03;;;;;;;4.07;49.66;99793.50;8452562;28;20222;-64
2022/01/12 05:00:18;;;;;;;5.27;4.77;;;;;;;4.42;49.24;99806.69;8454115;28;20559;-64
2022/01/12 05:08:53;;;;;;;5.40;4.90;;;;;;;4.59;48.91;99827.38;8453484;28;20221;-64
2022/01/12 05:13:00;;;;;;;6.37;5.10;;;;;;;4.65;49.35;99831.72;8453470;28;20237;-64
2022/01/12 05:17:03;;;;;;;4.90;4.40;;;;;;;4.69;49.32;99833.47;8453451;28;20233;-64
2022/01/12 05:21:06;;;;;;;5.33;4.83;;;;;;;4.72;49.24;99833.47;8453362;28;20253;-64
2022/01/12 05:25:11;;;;;;;5.53;4.90;;;;;;;4.60;49.43;99839.34;8453045;28;20230;-64
2022/01/12 05:29:15;;;;;;;5.77;4.93;;;;;;;4.52;49.50;99830.72;8453236;28;20256;-64
2022/01/12 05:33:18;;;;;;;6.13;4.80;;;;;;;4.66;49.00;99838.56;8455433;28;20233;-64
2022/01/12 05:37:21;;;;;;;5.17;4.67;;;;;;;4.70;48.61;99841.19;8462642;28;20410;-64
2022/01/12 05:41:25;;;;;;;5.53;5.03;;;;;;;4.56;48.83;99849.59;8469016;28;20225;-64
2022/01/12 05:45:32;;;;;;;6.00;5.07;;;;;;;4.50;48.89;99846.09;8468687;28;20230;-64
2022/01/12 05:49:36;;;;;;;6.60;5.03;;;;;;;4.27;49.17;99845.88;8417784;28;20223;-64
2022/01/12 05:53:39;;;;;;;7.07;5.63;;;;;;;4.27;48.68;99847.59;8418605;28;20237;-64
2022/01/12 05:57:43;;;;;;;6.43;5.00;;;;;;;4.17;49.57;99846.63;8418437;28;20417;-64
2022/01/12 06:01:46;;;;;;;5.93;5.00;;;;;;;4.38;49.17;99838.31;8435836;28;20226;-64
2022/01/12 06:05:49;;;;;;;5.63;4.90;;;;;;;3.52;50.86;99845.78;8441229;28;20230;-64
2022/01/12 06:09:52;;;;;;;6.07;4.93;;;;;;;3.99;50.24;99860.06;8454389;28;20226;-64
2022/01/12 06:13:58;;;;;;;7.70;6.90;;;;;;;3.55;50.49;99854.34;8451465;28;20234;-64
2022/01/12 06:18:01;;;;;;;5.90;5.30;;;;;;;3.50;50.83;99859.41;8449485;28;20252;-64
2022/01/12 06:22:05;;;;;;;11.77;10.00;;;;;;;3.71;50.50;99852.03;8451063;28;20226;-64
2022/01/12 06:26:08;;;;;;;10.53;6.57;;;;;;;3.70;50.85;99846.88;8451080;28;20230;-64
2022/01/12 06:31:10;;;;;;;6.23;5.60;;;;;;;3.74;50.85;99845.22;8451242;28;20230;-64
2022/01/12 06:34:38;;;;;;;5.80;5.27;;;;;;;3.62;51.01;99846.78;8450001;28;20221;-64
2022/01/12 06:38:42;;;;;;;7.47;6.77;;;;;;;3.97;50.08;99851.50;8450359;28;20226;-64
2022/01/12 06:42:45;;;;;;;6.73;6.13;;;;;;;3.60;51.05;99848.47;8450774;28;20571;-64
2022/01/12 06:46:51;;;;;;;6.47;5.23;;;;;;;3.91;50.32;99865.09;8450357;28;20230;-64
2022/01/12 06:50:54;;;;;;;5.37;4.87;;;;;;;3.87;50.43;99875.31;8450443;28;20226;-64
2022/01/12 06:54:57;;;;;;;5.90;5.30;;;;;;;3.73;50.65;99880.22;8450261;28;20237;-64
2022/01/12 06:59:00;;;;;;;7.33;5.30;;;;;;;3.92;50.05;99878.75;8449803;28;20313;-64
2022/01/12 07:03:04;;;;;;;8.03;6.03;;;;;;;3.37;51.07;99894.22;8449814;28;20390;-64
2022/01/12 07:07:07;;;;;;;9.00;7.20;;;;;;;3.61;51.01;99886.03;8449777;28;20229;-64
2022/01/12 07:11:10;;;;;;;9.80;6.70;;;;;;;3.34;51.61;99901.84;8449709;28;20410;-64
2022/01/12 07:15:13;;;;;;;8.10;6.43;;;;;;;3.68;50.63;99912.63;8449532;28;20241;-64
2022/01/12 07:19:18;;;;;;;6.77;5.87;;;;;;;3.70;50.12;99914.34;8449582;28;20494;-64
2022/01/12 07:23:20;;;;;;;6.00;5.40;;;;;;;3.63;51.12;99915.09;8449690;28;20234;-64
2022/01/12 07:27:23;;;;;;;12.33;8.23;;;;;;;4.13;49.98;99920.91;8449339;28;20225;-64
2022/01/12 07:31:26;;;;;;;7.80;6.70;;;;;;;3.82;50.00;99931.59;8476032;28;20234;-64
2022/01/12 07:35:31;;;;;;;8.97;6.17;;;;;;;3.95;49.67;99935.22;8449326;28;20362;-64
2022/01/12 07:39:34;;;;;;;7.27;6.10;;;;;;;3.63;50.96;99942.44;8482278;28;20524;-64
2022/01/12 07:43:37;;;;;;;11.23;9.30;;;;;;;4.09;50.07;99940.53;8482412;28;20233;-65
2022/01/12 07:47:40;;;;;;;12.53;10.90;;;;;;;3.81;50.06;99937.59;8482701;28;20566;-64
2022/01/12 07:51:44;;;;;;;12.53;9.27;;;;;;;3.92;49.41;99923.22;8483075;28;20234;-64
2022/01/12 07:55:47;;;;;;;20.03;12.90;;;;;;;4.02;49.74;99921.66;8482522;28;20247;-64
2022/01/12 07:59:50;;;;;;;12.63;9.93;;;;;;;3.54;50.32;99927.78;8482142;28;20396;-64
2022/01/12 08:03:53;;;;;;;12.47;8.87;;;;;;;3.35;51.75;99947.13;8468553;28;20233;-64
2022/01/12 08:07:58;;;;;;;10.73;8.93;;;;;;;3.36;51.25;99940.31;8433888;28;20544;-64
2022/01/12 08:12:02;;;;;;;17.37;11.97;;;;;;;3.62;51.57;99933.03;8472245;28;20571;-64
2022/01/12 08:16:05;;;;;;;11.93;8.70;;;;;;;3.65;51.89;99930.50;8480903;28;20230;-64
2022/01/12 08:20:12;;;;;;;16.70;9.50;;;;;;;3.15;52.27;99938.25;8481170;28;20233;-63
2022/01/12 08:24:16;;;;;;;16.83;12.30;;;;;;;2.93;53.10;99938.75;8481071;28;20229;-64
2022/01/12 08:28:39;;;;;;;14.63;9.47;;;;;;;3.44;51.79;99936.16;8462516;28;20229;-64
2022/01/12 08:32:42;;;;;;;10.60;8.97;;;;;;;3.47;51.33;99943.91;8460817;28;20240;-64
2022/01/12 08:36:45;;;;;;;16.13;10.73;;;;;;;4.16;50.14;99942.34;8462818;28;20230;-64
2022/01/12 08:40:50;;;;;;;15.37;11.57;;;;;;;4.00;49.82;99954.09;8463040;28;20222;-64
2022/01/12 08:44:53;;;;;;;12.33;10.30;;;;;;;4.44;49.07;99965.78;8465182;28;20406;-64
2022/01/12 08:48:56;;;;;;;11.07;9.47;;;;;;;4.75;48.91;99956.72;8473005;28;20225;-64
2022/01/12 08:53:00;;;;;;;11.27;9.40;;;;;;;4.97;48.10;99951.81;8480584;28;20225;-64
2022/01/12 08:57:04;;;;;;;19.73;11.90;;;;;;;4.11;49.19;99964.47;8477471;28;20229;-65
2022/01/12 09:01:09;;;;;;;13.33;10.37;;;;;;;6.05;58.53;99975.00;8477355;28;20292;-65
2022/01/12 09:05:14;;;;;;;12.40;10.00;;;;;;;5.96;45.94;99976.63;8456142;28;20415;-71
2022/01/12 09:09:18;;;;;;;11.93;9.40;;;;;;;5.51;45.75;99993.44;8446138;28;20237;-69
2022/01/12 09:13:22;;;;;;;12.37;9.93;;;;;;;5.13;46.72;99996.50;8446921;28;20418;-69
2022/01/12 09:17:25;;;;;;;12.20;10.40;;;;;;;5.09;47.19;100016.16;8446591;28;20230;-70
2022/01/12 09:21:29;;;;;;;10.93;9.63;;;;;;;5.21;47.37;100015.41;8446546;28;20252;-70
2022/01/12 09:25:35;;;;;;;17.37;11.47;;;;;;;4.82;47.72;100019.28;8446055;28;20221;-68
2022/01/12 09:29:39;;;;;;;16.47;10.63;;;;;;;5.17;47.24;100032.50;8446811;28;20230;-73
2022/01/12 09:33:43;;;;;;;10.77;9.67;;;;;;;5.01;47.43;100036.63;8446121;28;20234;-70
2022/01/12 09:37:45;;;;;;;10.53;9.43;;;;;;;5.21;47.66;100051.38;8446142;28;20234;-73
2022/01/12 09:41:48;;;;;;;11.77;10.57;;;;;;;5.21;46.94;100049.66;8448504;28;20230;-69
2022/01/12 09:45:53;;;;;;;12.00;10.70;;;;;;;5.32;47.11;100041.22;8452375;28;20284;-70
2022/01/12 09:49:56;;;;;;;12.20;10.47;;;;;;;5.28;47.36;100048.88;8460412;28;20566;-70
2022/01/12 09:53:59;;;;;;;11.90;9.90;;;;;;;5.33;46.72;100046.38;8459625;28;20230;-68
2022/01/12 09:58:02;;;;;;;12.90;9.80;;;;;;;5.47;46.51;100055.06;8451903;28;20241;-70
2022/01/12 10:02:16;;;;;;;11.93;10.33;;;;;;;5.48;45.71;100049.09;8464930;28;20240;-70
2022/01/12 10:06:20;;;;;;;11.33;10.23;;;;;;;5.55;46.14;100047.44;8485533;28;20574;-70
2022/01/12 10:10:22;;;;;;;10.83;9.43;;;;;;;5.54;45.80;100047.41;8485211;28;20225;-70
2022/01/12 10:14:25;;;;;;;14.20;9.97;;;;;;;5.22;45.67;100042.84;8485421;28;20327;-70
2022/01/12 10:18:30;;;;;;;11.50;10.30;;;;;;;5.67;45.84;100044.09;8485053;28;20263;-70
2022/01/12 10:22:32;;;;;;;11.70;10.00;;;;;;;5.57;46.01;100034.59;8459362;28;20402;-67
2022/01/12 10:26:39;;;;;;;12.20;10.60;;;;;;;5.76;45.50;100049.31;8484718;28;20233;-70
2022/01/12 10:30:52;;;;;;;11.50;9.83;;;;;;;5.69;45.20;100050.13;8484253;28;20236;-68
2022/01/12 10:34:59;;;;;;;11.70;9.53;;;;;;;5.42;45.41;100049.00;8426687;28;20226;-70
2022/01/12 10:39:06;;;;;;;12.00;9.83;;;;;;;5.43;45.35;100052.47;8417025;28;20237;-69
2022/01/12 10:43:28;;;;;;;10.10;9.00;;;;;;;5.62;45.35;100031.22;8416931;28;20226;-71
2022/01/12 10:47:32;;;;;;;11.80;10.27;;;;;;;5.68;45.39;100025.28;8450015;28;20233;-70
2022/01/12 10:51:37;;;;;;;11.20;9.43;;;;;;;5.46;45.78;100021.63;8449491;28;20233;-70
2022/01/12 10:55:40;;;;;;;11.57;9.53;;;;;;;5.77;44.80;100014.19;8450091;28;20297;-70
2022/01/12 10:59:43;;;;;;;10.50;9.40;;;;;;;5.94;44.29;100002.34;8449831;28;20230;-71
2022/01/12 11:03:47;;;;;;;12.17;9.60;;;;;;;5.99;44.63;100013.53;8477357;28;20237;-70
2022/01/12 11:07:52;;;;;;;12.73;9.53;;;;;;;6.30;44.23;100016.28;8483488;28;20296;-67
2022/01/12 11:11:55;;;;;;;9.73;8.73;;;;;;;6.25;43.71;100020.56;8483352;28;20236;-67
2022/01/12 11:15:59;;;;;;;11.10;9.30;;;;;;;6.23;43.59;100009.41;8482853;28;20240;-67
2022/01/12 11:20:12;;;;;;;11.53;9.43;;;;;;;6.30;44.00;100002.56;8483096;28;20416;-67
2022/01/12 11:24:18;;;;;;;10.63;9.47;;;;;;;6.42;43.89;99998.34;8481692;28;20231;-67
2022/01/12 11:28:24;;;;;;;11.53;10.07;;;;;;;5.82;44.82;99986.81;8457177;28;20236;-67
2022/01/12 11:32:26;;;;;;;10.60;9.60;;;;;;;6.32;44.58;99973.44;8483410;28;20237;-67
2022/01/12 11:36:39;;;;;;;12.13;10.30;;;;;;;6.43;43.87;99965.75;8482610;28;20229;-67
2022/01/12 11:40:44;;;;;;;13.33;10.20;;;;;;;5.92;44.20;99968.03;8448580;28;20229;-67
2022/01/12 11:44:46;;;;;;;12.67;10.27;;;;;;;6.36;43.07;99962.31;8448633;28;20234;-67
2022/01/12 11:48:51;;;;;;;13.83;10.60;;;;;;;6.21;43.99;99954.50;8448654;28;20247;-67
2022/01/12 11:52:54;;;;;;;11.40;10.20;;;;;;;6.25;44.59;99946.81;8449088;28;20414;-66
2022/01/12 11:57:01;;;;;;;11.83;9.83;;;;;;;6.65;44.19;99957.25;8448476;28;20244;-67
2022/01/12 12:01:14;;;;;;;13.80;11.23;;;;;;;6.69;43.72;99954.72;8448159;28;20422;-66
2022/01/12 12:05:20;;;;;;;13.77;10.53;;;;;;;6.73;43.92;99966.72;8479353;28;20245;-66
2022/01/12 12:09:23;;;;;;;14.83;10.03;;;;;;;6.38;43.86;99959.75;8481799;28;20232;-67
2022/01/12 12:13:28;;;;;;;14.27;11.10;;;;;;;6.73;44.11;99949.56;8481759;28;20228;-67
2022/01/12 12:17:32;;;;;;;11.80;10.57;;;;;;;6.61;43.79;99963.25;8480826;28;20233;-69
2022/01/12 12:21:37;;;;;;;14.57;10.30;;;;;;;6.79;43.32;99957.28;8481437;28;20540;-68
2022/01/12 12:25:40;;;;;;;12.07;10.57;;;;;;;6.97;43.15;99963.38;8478738;28;20241;-68
2022/01/12 12:29:44;;;;;;;15.40;10.97;;;;;;;6.94;43.87;99955.63;8454370;28;20245;-68
2022/01/12 12:33:47;;;;;;;12.27;11.00;;;;;;;7.05;42.78;99959.09;8447335;28;20234;-66
2022/01/12 12:37:53;;;;;;;15.53;11.87;;;;;;;7.00;42.96;99960.78;8447812;28;20242;-67
2022/01/12 12:41:56;;;;;;;15.43;12.97;;;;;;;7.28;43.49;99961.69;8447932;28;20524;-66
2022/01/12 12:46:02;;;;;;;12.50;11.20;;;;;;;7.43;42.71;99960.84;8447862;28;20233;-67
2022/01/12 12:50:12;;;;;;;13.10;10.90;;;;;;;7.24;42.56;99960.81;8447037;28;20226;-67
2022/01/12 12:54:15;;;;;;;11.70;10.43;;;;;;;7.42;42.44;99965.16;8446862;28;20228;-66
2022/01/12 12:58:38;;;;;;;12.27;11.07;;;;;;;7.17;43.66;99959.09;8453842;28;20230;-67
2022/01/12 13:02:46;;;;;;;14.07;11.90;;;;;;;7.07;44.13;99967.69;8455335;28;20229;-67
2022/01/12 13:06:49;;;;;;;13.03;11.67;;;;;;;7.30;43.97;99959.13;8446154;28;20238;-65
2022/01/12 13:10:53;;;;;;;13.93;12.60;;;;;;;7.32;43.77;99958.25;8446786;28;20240;-69
2022/01/12 13:14:55;;;;;;;12.87;11.57;;;;;;;7.44;42.72;99966.00;8447649;28;20576;-69
2022/01/12 13:19:06;;;;;;;14.57;13.07;;;;;;;7.67;42.39;99972.84;8453452;28;20236;-68
2022/01/12 13:23:09;;;;;;;9.73;8.77;;;;;;;7.70;42.41;99967.69;8453612;28;20420;-68
2022/01/12 13:27:13;;;;;;;11.10;9.93;;;;;;;7.68;42.38;99959.13;8453052;28;20449;-69
2022/01/12 13:31:17;;;;;;;17.70;15.87;;;;;;;7.48;43.16;99956.53;8453004;28;20234;-69
2022/01/12 13:35:27;;;;;;;9.77;8.77;;;;;;;7.43;42.54;99948.81;8453132;28;20237;-69
2022/01/12 13:39:30;;;;;;;10.70;9.70;;;;;;;7.52;41.90;99944.50;8452939;28;20540;-70
2022/01/12 13:43:33;;;;;;;11.17;9.97;;;;;;;7.53;42.60;99954.81;8485969;28;20221;-68
2022/01/12 13:47:38;;;;;;;13.33;11.53;;;;;;;7.59;43.26;99959.97;8486616;28;20229;-71
2022/01/12 13:51:43;;;;;;;15.53;13.47;;;;;;;7.63;43.08;99960.81;8486284;28;20237;-71
2022/01/12 13:55:51;;;;;;;9.90;8.87;;;;;;;7.25;43.54;99969.41;8485801;28;20233;-70
2022/01/12 13:59:54;;;;;;;11.73;10.37;;;;;;;7.29;43.90;99966.00;8486264;28;20241;-65
2022/01/12 14:04:07;;;;;;;29.40;24.80;;;;;;;7.92;42.46;99952.19;8483730;28;20401;-65
2022/01/12 14:08:14;;;;;;;65.10;43.70;;;;;;;7.33;43.66;99969.41;8485134;28;20236;-65
2022/01/12 14:12:18;;;;;;;36.20;28.40;;;;;;;7.41;43.78;99959.97;8485596;28;20229;-65
2022/01/12 14:16:21;;;;;;;15.53;11.57;;;;;;;7.34;44.15;99973.72;8485390;28;20248;-65
2022/01/12 14:20:31;;;;;;;21.37;19.17;;;;;;;7.36;44.65;99988.31;8485251;28;20422;-65
2022/01/12 14:24:35;;;;;;;11.90;10.53;;;;;;;7.24;44.24;99976.28;8450984;28;20505;-66
2022/01/12 14:28:38;;;;;;;10.87;9.80;;;;;;;7.22;44.53;99965.13;8446550;28;20226;-66
2022/01/12 14:32:41;;;;;;;11.40;10.20;;;;;;;7.07;44.62;99972.81;8447843;28;20241;-67
2022/01/12 14:36:44;;;;;;;10.30;9.20;;;;;;;7.10;44.49;99972.84;8449939;28;20499;-66
2022/01/12 14:40:49;;;;;;;10.40;9.20;;;;;;;7.06;43.94;99971.09;8449740;28;20222;-66
2022/01/12 14:44:52;;;;;;;11.50;9.27;;;;;;;7.03;44.42;99965.94;8449686;28;20230;-66
2022/01/12 14:48:55;;;;;;;13.20;10.07;;;;;;;6.82;44.69;99964.19;8447476;28;20236;-66
2022/01/12 14:52:58;;;;;;;10.70;9.60;;;;;;;6.88;44.60;99961.63;8447686;28;20233;-66
2022/01/12 14:57:21;;;;;;;11.73;9.67;;;;;;;6.70;45.53;99962.44;8448563;28;20540;-66
2022/01/12 15:01:24;;;;;;;11.70;9.57;;;;;;;6.80;45.35;99973.63;8438158;28;20225;-66
2022/01/12 15:05:28;;;;;;;11.53;10.30;;;;;;;6.85;45.02;99980.50;8449121;28;20234;-65
2022/01/12 15:09:32;;;;;;;13.73;10.37;;;;;;;6.86;45.60;99973.63;8480292;28;20434;-66
2022/01/12 15:13:41;;;;;;;11.97;10.77;;;;;;;6.78;45.41;99973.63;8482260;28;20428;-69
2022/01/12 15:17:44;;;;;;;11.50;10.30;;;;;;;6.78;45.42;99965.88;8481035;28;20558;-68
2022/01/12 15:21:47;;;;;;;11.07;9.87;;;;;;;6.79;45.59;99985.63;8482246;28;20221;-69
2022/01/12 15:25:51;;;;;;;11.87;10.67;;;;;;;6.72;45.87;99989.06;8482399;28;20409;-69
2022/01/12 15:29:56;;;;;;;13.17;10.87;;;;;;;6.64;46.57;99983.88;8481185;28;20248;-70
2022/01/12 15:33:59;;;;;;;13.77;11.50;;;;;;;6.66;46.02;99976.13;8481774;28;20222;-70
2022/01/12 15:38:03;;;;;;;14.30;12.13;;;;;;;6.55;45.94;99965.81;8481423;28;20232;-70
2022/01/12 15:42:06;;;;;;;12.23;10.87;;;;;;;6.53;46.31;99977.81;8481428;28;20532;-70
2022/01/12 15:46:10;;;;;;;13.97;12.47;;;;;;;6.30;46.04;99969.97;8481406;28;20225;-70
2022/01/12 15:50:13;;;;;;;22.03;14.83;;;;;;;6.41;46.73;99981.19;8481333;28;20225;-72
2022/01/12 15:54:16;;;;;;;28.13;21.00;;;;;;;6.43;46.64;99982.03;8482516;28;20554;-66
2022/01/12 15:58:19;;;;;;;82.90;50.23;;;;;;;6.34;46.57;99974.31;8481470;28;20225;-66
2022/01/12 16:02:24;;;;;;;28.17;20.07;;;;;;;6.34;47.63;99978.56;8481387;28;20225;-66
2022/01/12 16:06:27;;;;;;;16.80;15.10;;;;;;;6.34;46.56;99982.03;8481354;28;20449;-67
2022/01/12 16:10:31;;;;;;;17.23;14.43;;;;;;;6.29;47.89;99977.72;8481081;28;20324;-66
2022/01/12 16:14:34;;;;;;;15.33;13.57;;;;;;;6.16;47.49;99972.47;8462757;28;20226;-66
2022/01/12 16:18:38;;;;;;;20.00;17.10;;;;;;;6.19;48.23;99982.81;8440811;28;20233;-66
2022/01/12 16:22:42;;;;;;;26.80;21.10;;;;;;;6.14;48.24;99986.19;8455483;28;20233;-65
2022/01/12 16:26:45;;;;;;;26.53;21.47;;;;;;;6.16;48.48;99997.34;8440525;28;20233;-66
2022/01/12 16:30:51;;;;;;;24.80;16.67;;;;;;;6.00;49.01;99991.25;8446257;28;20230;-66
2022/01/12 16:34:55;;;;;;;16.37;14.67;;;;;;;5.98;49.26;99987.81;8443772;28;20245;-67
2022/01/12 16:38:59;;;;;;;18.30;16.27;;;;;;;5.96;49.19;99989.50;8439526;28;20230;-66
2022/01/12 16:43:02;;;;;;;19.57;17.30;;;;;;;5.86;50.06;99996.25;8445350;28;20222;-66
2022/01/12 16:47:06;;;;;;;23.40;20.43;;;;;;;5.92;49.39;99995.44;8443953;28;20226;-65
2022/01/12 16:51:10;;;;;;;25.03;20.80;;;;;;;5.89;49.10;100001.44;8452283;28;20226;-67
2022/01/12 16:55:13;;;;;;;42.20;34.03;;;;;;;5.90;49.05;99994.56;8457530;28;20225;-66
2022/01/12 16:59:16;;;;;;;38.70;31.33;;;;;;;5.92;49.22;100001.47;8455727;28;20560;-67
2022/01/12 17:03:19;;;;;;;31.80;28.17;;;;;;;5.76;49.64;100010.75;8458464;28;20233;-66
2022/01/12 17:07:24;;;;;;;34.73;28.67;;;;;;;5.74;50.14;100019.31;8458295;28;20506;-67
2022/01/12 17:11:28;;;;;;;33.63;28.93;;;;;;;5.78;49.61;100026.19;8458284;28;20275;-66
2022/01/12 17:16:15;;;;;;;44.57;37.03;;;;;;;5.76;50.13;100027.91;8457869;28;20221;-67
2022/01/12 17:20:18;;;;;;;44.67;39.77;;;;;;;5.76;49.78;100021.03;8449283;28;20230;-66
2022/01/12 17:24:26;;;;;;;41.80;35.60;;;;;;;5.66;50.11;100014.97;8458034;28;20226;-66
2022/01/12 17:28:32;;;;;;;42.90;33.80;;;;;;;5.63;49.70;100047.50;8457228;28;20537;-66
2022/01/12 17:32:39;;;;;;;42.27;35.27;;;;;;;5.66;50.26;100052.69;8459741;28;20248;-67
2022/01/12 17:36:45;;;;;;;39.53;33.13;;;;;;;5.48;50.99;100049.09;8490821;28;20229;-66
2022/01/12 17:40:50;;;;;;;40.53;34.37;;;;;;;5.69;50.92;100055.25;8490959;28;20240;-66
2022/01/12 17:44:54;;;;;;;36.60;29.90;;;;;;;5.55;50.83;100049.16;8491058;28;20225;-66
2022/01/12 17:49:01;;;;;;;25.53;21.77;;;;;;;5.53;50.95;100049.13;8480692;28;20225;-66
2022/01/12 17:53:04;;;;;;;23.37;18.57;;;;;;;5.63;50.41;100050.91;8472478;28;20221;-66
2022/01/12 17:57:08;;;;;;;23.17;20.73;;;;;;;5.57;50.76;100048.31;8465052;27;20543;-66
2022/01/12 18:01:13;;;;;;;26.57;23.77;;;;;;;5.62;50.92;100046.66;8465510;28;20415;-66
2022/01/12 18:05:17;;;;;;;26.60;23.90;;;;;;;5.62;51.07;100050.94;8459277;28;20249;-66
2022/01/12 18:09:20;;;;;;;26.00;23.13;;;;;;;5.59;50.89;100056.03;8470674;28;20234;-66
2022/01/12 18:13:24;;;;;;;29.40;26.30;;;;;;;5.66;50.81;100060.38;8464246;28;20221;-66
2022/01/12 18:17:27;;;;;;;36.83;32.03;;;;;;;5.68;50.98;100061.25;8483906;28;20225;-66
2022/01/12 18:21:30;;;;;;;33.73;28.73;;;;;;;5.74;51.16;100065.59;8471374;28;20282;-68
2022/01/12 18:25:33;;;;;;;28.47;24.57;;;;;;;5.81;50.62;100075.94;8446926;28;20214;-66
2022/01/12 18:29:40;;;;;;;25.23;22.50;;;;;;;5.81;50.85;100070.81;8456432;28;20544;-67
2022/01/12 18:33:44;;;;;;;23.07;20.67;;;;;;;5.74;51.03;100081.88;8464191;28;20242;-66
2022/01/12 18:37:47;;;;;;;60.63;26.50;;;;;;;8.26;84.69;100073.44;8447577;28;20233;-68
2022/01/12 18:41:50;;;;;;;28.37;25.37;;;;;;;7.88;51.56;100071.72;8451247;28;20232;-66
2022/01/12 18:45:55;;;;;;;30.17;22.93;;;;;;;6.84;49.60;100070.66;8477105;28;20225;-67
2022/01/12 18:49:58;;;;;;;23.80;20.60;;;;;;;6.52;49.83;100061.03;8476785;28;20234;-66
2022/01/12 18:54:01;;;;;;;21.60;19.30;;;;;;;6.48;49.69;100068.75;8476523;28;20237;-67
2022/01/12 18:58:04;;;;;;;23.73;21.13;;;;;;;6.13;50.50;100059.94;8467712;28;20240;-66
2022/01/12 19:02:09;;;;;;;31.67;24.17;;;;;;;6.21;50.15;100045.41;8468118;28;20256;-66
2022/01/12 19:06:13;;;;;;;25.73;21.70;;;;;;;6.11;49.82;100055.63;8465639;28;20359;-66
2022/01/12 19:10:16;;;;;;;25.83;21.33;;;;;;;6.14;50.29;100045.38;8465750;28;20236;-68
2022/01/12 19:14:22;;;;;;;25.43;20.30;;;;;;;5.98;50.47;100059.84;8482160;28;20225;-67
2022/01/12 19:18:26;;;;;;;25.93;20.77;;;;;;;6.12;50.83;100077.94;8482327;28;20226;-66
2022/01/12 19:22:33;;;;;;;21.77;18.37;;;;;;;5.94;50.68;100079.50;8448356;28;20218;-67
2022/01/12 19:26:47;;;;;;;22.77;19.73;;;;;;;6.02;50.40;100070.16;8444407;28;20288;-67
2022/01/12 19:30:50;;;;;;;22.43;20.10;;;;;;;5.96;50.55;100072.69;8448178;28;20246;-67
2022/01/12 19:34:55;;;;;;;24.23;20.70;;;;;;;6.07;50.62;100075.31;8448939;28;20226;-66
2022/01/12 19:38:58;;;;;;;23.07;19.57;;;;;;;5.95;50.82;100065.78;8448562;28;20234;-66
2022/01/12 19:43:01;;;;;;;22.90;19.67;;;;;;;6.03;50.08;100073.56;8448396;28;20226;-66
2022/01/12 19:47:07;;;;;;;25.90;22.10;;;;;;;6.06;50.32;100082.19;8448289;28;20221;-66
2022/01/12 19:51:25;;;;;;;21.43;18.40;;;;;;;5.98;50.11;100081.25;8440221;28;20226;-66
2022/01/12 19:55:31;;;;;;;21.17;18.23;;;;;;;6.11;49.91;100091.63;8444754;28;20249;-67
2022/01/12 19:59:36;;;;;;;21.17;18.07;;;;;;;6.06;49.66;100105.34;8447469;28;20233;-66
2022/01/12 20:03:41;;;;;;;25.13;20.60;;;;;;;6.07;50.12;100109.63;8447824;28;20427;-67
2022/01/12 20:07:47;;;;;;;31.30;26.13;;;;;;;6.06;50.24;100115.63;8447866;28;20237;-66